sensor_id;sensor_type;location;lat;lon;timestamp;P1;durP1;ratioP1;P2;durP2;ratioP2
76656;SDS011;65576;47.714;9.414;2022-12-29T00:01:29;1.65;;;1.08;;
76656;SDS011;65576;47.714;9.414;2022-12-29T00:03:55;1.65;;;1.52;;
76656;SDS011;65576;47.714;9.414;2022-12-29T00:06:20;0.65;;;0.65;;
76656;SDS011;65576;47.714;9.414;2022-12-29T00:08:45;0.73;;;0.73;;
76656;SDS011;65576;47.714;9.414;2022-12-29T00:11:12;1.30;;;1.20;;
76656;SDS011;65576;47.714;9.414;2022-12-29T00:13:41;1.80;;;1.37;;
76656;SDS011;65576;47.714;9.414;2022-12-29T00:16:25;0.60;;;0.60;;
76656;SDS011;65576;47.714;9.414;2022-12-29T00:18:51;0.93;;;0.90;;
76656;SDS011;65576;47.714;9.414;2022-12-29T00:21:17;7.00;;;0.63;;
76656;SDS011;65576;47.714;9.414;2022-12-29T00:24:02;0.80;;;0.80;;
76656;SDS011;65576;47.714;9.414;2022-12-29T00:26:33;1.77;;;1.10;;
76656;SDS011;65576;47.714;9.414;2022-12-29T00:29:17;1.50;;;1.40;;
76656;SDS011;65576;47.714;9.414;2022-12-29T00:32:01;0.65;;;0.65;;
76656;SDS011;65576;47.714;9.414;2022-12-29T00:34:45;4.95;;;2.05;;
76656;SDS011;65576;47.714;9.414;2022-12-29T00:37:29;1.48;;;1.10;;
76656;SDS011;65576;47.714;9.414;2022-12-29T00:40:13;6.40;;;1.25;;
76656;SDS011;65576;47.714;9.414;2022-12-29T00:42:57;2.05;;;1.15;;
76656;SDS011;65576;47.714;9.414;2022-12-29T00:45:41;1.38;;;1.08;;
76656;SDS011;65576;47.714;9.414;2022-12-29T00:48:06;1.27;;;1.17;;
76656;SDS011;65576;47.714;9.414;2022-12-29T00:50:31;1.98;;;1.25;;
76656;SDS011;65576;47.714;9.414;2022-12-29T00:52:57;2.78;;;1.67;;
76656;SDS011;65576;47.714;9.414;2022-12-29T00:55:22;1.77;;;1.38;;
76656;SDS011;65576;47.714;9.414;2022-12-29T00:57:47;4.95;;;1.65;;
76656;SDS011;65576;47.714;9.414;2022-12-29T01:00:13;1.95;;;1.67;;
76656;SDS011;65576;47.714;9.414;2022-12-29T01:02:38;1.38;;;1.23;;
76656;SDS011;65576;47.714;9.414;2022-12-29T01:05:04;0.82;;;0.80;;
76656;SDS011;65576;47.714;9.414;2022-12-29T01:07:29;1.20;;;1.13;;
76656;SDS011;65576;47.714;9.414;2022-12-29T01:09:54;1.45;;;1.05;;
76656;SDS011;65576;47.714;9.414;2022-12-29T01:12:34;6.80;;;1.13;;
76656;SDS011;65576;47.714;9.414;2022-12-29T01:15:06;0.57;;;0.57;;
76656;SDS011;65576;47.714;9.414;2022-12-29T01:17:32;0.60;;;0.60;;
76656;SDS011;65576;47.714;9.414;2022-12-29T01:19:58;1.67;;;1.58;;
76656;SDS011;65576;47.714;9.414;2022-12-29T01:22:23;1.02;;;0.88;;
76656;SDS011;65576;47.714;9.414;2022-12-29T01:24:49;2.03;;;1.13;;
76656;SDS011;65576;47.714;9.414;2022-12-29T01:27:14;0.90;;;0.90;;
76656;SDS011;65576;47.714;9.414;2022-12-29T01:29:39;0.52;;;0.52;;
76656;SDS011;65576;47.714;9.414;2022-12-29T01:32:04;6.53;;;0.77;;
76656;SDS011;65576;47.714;9.414;2022-12-29T01:34:30;1.52;;;0.98;;
76656;SDS011;65576;47.714;9.414;2022-12-29T01:36:55;1.10;;;0.70;;
76656;SDS011;65576;47.714;9.414;2022-12-29T01:39:20;0.80;;;0.80;;
76656;SDS011;65576;47.714;9.414;2022-12-29T01:41:46;1.00;;;0.95;;
76656;SDS011;65576;47.714;9.414;2022-12-29T01:47:35;1.27;;;1.00;;
76656;SDS011;65576;47.714;9.414;2022-12-29T01:50:04;2.97;;;2.15;;
76656;SDS011;65576;47.714;9.414;2022-12-29T01:52:32;2.30;;;1.08;;
76656;SDS011;65576;47.714;9.414;2022-12-29T01:55:00;1.70;;;1.17;;
76656;SDS011;65576;47.714;9.414;2022-12-29T01:57:28;1.35;;;1.27;;
76656;SDS011;65576;47.714;9.414;2022-12-29T01:59:58;1.73;;;1.42;;
76656;SDS011;65576;47.714;9.414;2022-12-29T02:02:28;0.40;;;0.40;;
76656;SDS011;65576;47.714;9.414;2022-12-29T02:04:54;0.93;;;0.85;;
76656;SDS011;65576;47.714;9.414;2022-12-29T02:07:21;2.00;;;1.05;;
76656;SDS011;65576;47.714;9.414;2022-12-29T02:09:48;0.77;;;0.77;;
76656;SDS011;65576;47.714;9.414;2022-12-29T02:12:14;1.55;;;1.45;;
76656;SDS011;65576;47.714;9.414;2022-12-29T02:14:40;1.30;;;0.88;;
76656;SDS011;65576;47.714;9.414;2022-12-29T02:20:24;1.10;;;0.65;;
76656;SDS011;65576;47.714;9.414;2022-12-29T02:23:05;0.57;;;0.57;;
76656;SDS011;65576;47.714;9.414;2022-12-29T02:28:29;0.52;;;0.52;;
76656;SDS011;65576;47.714;9.414;2022-12-29T02:31:30;0.57;;;0.57;;
76656;SDS011;65576;47.714;9.414;2022-12-29T02:39:15;0.65;;;0.63;;
76656;SDS011;65576;47.714;9.414;2022-12-29T02:50:06;1.20;;;0.60;;
76656;SDS011;65576;47.714;9.414;2022-12-29T02:52:38;0.70;;;0.70;;
76656;SDS011;65576;47.714;9.414;2022-12-29T02:55:05;6.68;;;0.95;;
76656;SDS011;65576;47.714;9.414;2022-12-29T02:57:35;0.52;;;0.52;;
76656;SDS011;65576;47.714;9.414;2022-12-29T03:00:07;1.25;;;0.98;;
76656;SDS011;65576;47.714;9.414;2022-12-29T03:02:56;0.93;;;0.68;;
76656;SDS011;65576;47.714;9.414;2022-12-29T03:08:18;0.80;;;0.80;;
76656;SDS011;65576;47.714;9.414;2022-12-29T03:11:02;2.45;;;1.40;;
76656;SDS011;65576;47.714;9.414;2022-12-29T03:16:46;1.60;;;0.90;;
76656;SDS011;65576;47.714;9.414;2022-12-29T03:19:14;0.90;;;0.52;;
76656;SDS011;65576;47.714;9.414;2022-12-29T03:21:44;0.57;;;0.57;;
76656;SDS011;65576;47.714;9.414;2022-12-29T03:24:41;0.47;;;0.47;;
76656;SDS011;65576;47.714;9.414;2022-12-29T03:27:09;1.75;;;0.60;;
76656;SDS011;65576;47.714;9.414;2022-12-29T03:29:37;0.35;;;0.35;;
76656;SDS011;65576;47.714;9.414;2022-12-29T03:32:05;0.70;;;0.55;;
76656;SDS011;65576;47.714;9.414;2022-12-29T03:34:32;0.30;;;0.30;;
76656;SDS011;65576;47.714;9.414;2022-12-29T03:37:02;0.57;;;0.57;;
76656;SDS011;65576;47.714;9.414;2022-12-29T03:39:30;0.57;;;0.38;;
76656;SDS011;65576;47.714;9.414;2022-12-29T03:41:58;0.30;;;0.28;;
76656;SDS011;65576;47.714;9.414;2022-12-29T03:44:39;0.47;;;0.28;;
76656;SDS011;65576;47.714;9.414;2022-12-29T03:47:06;0.50;;;0.50;;
76656;SDS011;65576;47.714;9.414;2022-12-29T03:49:32;0.60;;;0.60;;
76656;SDS011;65576;47.714;9.414;2022-12-29T03:51:57;1.27;;;0.82;;
76656;SDS011;65576;47.714;9.414;2022-12-29T03:54:23;0.38;;;0.38;;
76656;SDS011;65576;47.714;9.414;2022-12-29T03:56:48;0.50;;;0.50;;
76656;SDS011;65576;47.714;9.414;2022-12-29T03:59:14;0.60;;;0.60;;
76656;SDS011;65576;47.714;9.414;2022-12-29T04:01:39;0.38;;;0.38;;
76656;SDS011;65576;47.714;9.414;2022-12-29T04:04:04;1.58;;;0.57;;
76656;SDS011;65576;47.714;9.414;2022-12-29T04:06:30;0.28;;;0.28;;
76656;SDS011;65576;47.714;9.414;2022-12-29T04:08:55;0.47;;;0.40;;
76656;SDS011;65576;47.714;9.414;2022-12-29T04:11:21;0.38;;;0.38;;
76656;SDS011;65576;47.714;9.414;2022-12-29T04:13:46;0.57;;;0.50;;
76656;SDS011;65576;47.714;9.414;2022-12-29T04:16:12;0.38;;;0.38;;
76656;SDS011;65576;47.714;9.414;2022-12-29T04:18:37;0.63;;;0.63;;
76656;SDS011;65576;47.714;9.414;2022-12-29T04:21:02;0.40;;;0.40;;
76656;SDS011;65576;47.714;9.414;2022-12-29T04:23:30;5.85;;;0.52;;
76656;SDS011;65576;47.714;9.414;2022-12-29T04:25:56;0.50;;;0.50;;
76656;SDS011;65576;47.714;9.414;2022-12-29T04:28:21;0.40;;;0.22;;
76656;SDS011;65576;47.714;9.414;2022-12-29T04:30:47;2.40;;;0.68;;
76656;SDS011;65576;47.714;9.414;2022-12-29T04:33:13;0.63;;;0.63;;
76656;SDS011;65576;47.714;9.414;2022-12-29T04:35:38;1.50;;;0.60;;
76656;SDS011;65576;47.714;9.414;2022-12-29T04:38:03;0.30;;;0.30;;
76656;SDS011;65576;47.714;9.414;2022-12-29T04:40:29;1.88;;;0.52;;
76656;SDS011;65576;47.714;9.414;2022-12-29T04:42:54;0.30;;;0.30;;
76656;SDS011;65576;47.714;9.414;2022-12-29T04:45:20;0.50;;;0.50;;
76656;SDS011;65576;47.714;9.414;2022-12-29T04:47:45;0.63;;;0.63;;
76656;SDS011;65576;47.714;9.414;2022-12-29T04:50:10;1.65;;;0.68;;
76656;SDS011;65576;47.714;9.414;2022-12-29T04:52:36;1.02;;;0.75;;
76656;SDS011;65576;47.714;9.414;2022-12-29T04:55:01;0.85;;;0.77;;
76656;SDS011;65576;47.714;9.414;2022-12-29T04:57:27;0.30;;;0.30;;
76656;SDS011;65576;47.714;9.414;2022-12-29T04:59:52;0.38;;;0.38;;
76656;SDS011;65576;47.714;9.414;2022-12-29T05:02:18;0.50;;;0.50;;
76656;SDS011;65576;47.714;9.414;2022-12-29T05:04:43;0.43;;;0.43;;
76656;SDS011;65576;47.714;9.414;2022-12-29T05:07:08;0.68;;;0.68;;
76656;SDS011;65576;47.714;9.414;2022-12-29T05:09:34;0.40;;;0.40;;
76656;SDS011;65576;47.714;9.414;2022-12-29T05:11:59;0.40;;;0.40;;
76656;SDS011;65576;47.714;9.414;2022-12-29T05:14:24;0.40;;;0.40;;
76656;SDS011;65576;47.714;9.414;2022-12-29T05:16:50;0.55;;;0.43;;
76656;SDS011;65576;47.714;9.414;2022-12-29T05:19:16;0.22;;;0.22;;
76656;SDS011;65576;47.714;9.414;2022-12-29T05:21:42;0.75;;;0.35;;
76656;SDS011;65576;47.714;9.414;2022-12-29T05:24:07;0.70;;;0.57;;
76656;SDS011;65576;47.714;9.414;2022-12-29T05:26:33;6.43;;;0.80;;
76656;SDS011;65576;47.714;9.414;2022-12-29T05:28:58;0.32;;;0.30;;
76656;SDS011;65576;47.714;9.414;2022-12-29T05:31:24;2.10;;;0.90;;
76656;SDS011;65576;47.714;9.414;2022-12-29T05:33:50;0.30;;;0.30;;
76656;SDS011;65576;47.714;9.414;2022-12-29T05:36:15;0.32;;;0.32;;
76656;SDS011;65576;47.714;9.414;2022-12-29T05:38:40;0.90;;;0.68;;
76656;SDS011;65576;47.714;9.414;2022-12-29T05:41:06;0.98;;;0.60;;
76656;SDS011;65576;47.714;9.414;2022-12-29T05:43:31;0.98;;;0.88;;
76656;SDS011;65576;47.714;9.414;2022-12-29T05:45:56;0.80;;;0.63;;
76656;SDS011;65576;47.714;9.414;2022-12-29T05:48:22;0.63;;;0.63;;
76656;SDS011;65576;47.714;9.414;2022-12-29T05:50:48;0.85;;;0.68;;
76656;SDS011;65576;47.714;9.414;2022-12-29T05:53:14;0.43;;;0.43;;
76656;SDS011;65576;47.714;9.414;2022-12-29T05:55:39;0.55;;;0.52;;
76656;SDS011;65576;47.714;9.414;2022-12-29T05:58:05;0.60;;;0.60;;
76656;SDS011;65576;47.714;9.414;2022-12-29T06:00:30;0.52;;;0.52;;
76656;SDS011;65576;47.714;9.414;2022-12-29T06:02:55;0.45;;;0.45;;
76656;SDS011;65576;47.714;9.414;2022-12-29T06:05:20;0.70;;;0.70;;
76656;SDS011;65576;47.714;9.414;2022-12-29T06:07:46;0.30;;;0.30;;
76656;SDS011;65576;47.714;9.414;2022-12-29T06:10:11;1.27;;;0.70;;
76656;SDS011;65576;47.714;9.414;2022-12-29T06:12:36;0.57;;;0.57;;
76656;SDS011;65576;47.714;9.414;2022-12-29T06:15:02;0.95;;;0.68;;
76656;SDS011;65576;47.714;9.414;2022-12-29T06:17:27;1.38;;;0.98;;
76656;SDS011;65576;47.714;9.414;2022-12-29T06:19:53;0.70;;;0.70;;
76656;SDS011;65576;47.714;9.414;2022-12-29T06:22:18;0.52;;;0.52;;
76656;SDS011;65576;47.714;9.414;2022-12-29T06:24:43;0.68;;;0.60;;
76656;SDS011;65576;47.714;9.414;2022-12-29T06:27:09;0.95;;;0.90;;
76656;SDS011;65576;47.714;9.414;2022-12-29T06:29:34;0.40;;;0.40;;
76656;SDS011;65576;47.714;9.414;2022-12-29T06:32:02;0.52;;;0.52;;
76656;SDS011;65576;47.714;9.414;2022-12-29T06:34:27;0.57;;;0.57;;
76656;SDS011;65576;47.714;9.414;2022-12-29T06:36:53;2.38;;;0.70;;
76656;SDS011;65576;47.714;9.414;2022-12-29T06:39:19;0.75;;;0.75;;
76656;SDS011;65576;47.714;9.414;2022-12-29T06:41:44;0.95;;;0.43;;
76656;SDS011;65576;47.714;9.414;2022-12-29T06:44:09;0.68;;;0.68;;
76656;SDS011;65576;47.714;9.414;2022-12-29T06:46:35;1.58;;;0.57;;
76656;SDS011;65576;47.714;9.414;2022-12-29T06:49:00;0.93;;;0.77;;
76656;SDS011;65576;47.714;9.414;2022-12-29T06:51:25;0.98;;;0.73;;
76656;SDS011;65576;47.714;9.414;2022-12-29T06:53:51;0.55;;;0.52;;
76656;SDS011;65576;47.714;9.414;2022-12-29T06:56:16;1.13;;;0.60;;
76656;SDS011;65576;47.714;9.414;2022-12-29T06:58:41;1.58;;;1.10;;
76656;SDS011;65576;47.714;9.414;2022-12-29T07:01:07;0.30;;;0.30;;
76656;SDS011;65576;47.714;9.414;2022-12-29T07:03:32;1.25;;;1.10;;
76656;SDS011;65576;47.714;9.414;2022-12-29T07:05:57;0.38;;;0.38;;
76656;SDS011;65576;47.714;9.414;2022-12-29T07:08:23;4.38;;;0.70;;
76656;SDS011;65576;47.714;9.414;2022-12-29T07:10:48;0.30;;;0.30;;
76656;SDS011;65576;47.714;9.414;2022-12-29T07:13:14;2.28;;;1.08;;
76656;SDS011;65576;47.714;9.414;2022-12-29T07:15:39;6.97;;;0.80;;
76656;SDS011;65576;47.714;9.414;2022-12-29T07:18:04;0.63;;;0.55;;
76656;SDS011;65576;47.714;9.414;2022-12-29T07:20:30;0.38;;;0.38;;
76656;SDS011;65576;47.714;9.414;2022-12-29T07:22:56;7.55;;;0.70;;
76656;SDS011;65576;47.714;9.414;2022-12-29T07:25:21;0.60;;;0.60;;
76656;SDS011;65576;47.714;9.414;2022-12-29T07:27:47;0.70;;;0.52;;
76656;SDS011;65576;47.714;9.414;2022-12-29T07:30:13;1.58;;;0.68;;
76656;SDS011;65576;47.714;9.414;2022-12-29T07:32:39;1.00;;;0.70;;
76656;SDS011;65576;47.714;9.414;2022-12-29T07:35:04;0.98;;;0.82;;
76656;SDS011;65576;47.714;9.414;2022-12-29T07:37:30;6.60;;;0.80;;
76656;SDS011;65576;47.714;9.414;2022-12-29T07:39:55;0.50;;;0.50;;
76656;SDS011;65576;47.714;9.414;2022-12-29T07:42:20;1.27;;;0.75;;
76656;SDS011;65576;47.714;9.414;2022-12-29T07:44:46;3.00;;;1.27;;
76656;SDS011;65576;47.714;9.414;2022-12-29T07:47:11;6.45;;;0.63;;
76656;SDS011;65576;47.714;9.414;2022-12-29T07:49:36;0.63;;;0.57;;
76656;SDS011;65576;47.714;9.414;2022-12-29T07:52:02;0.60;;;0.55;;
76656;SDS011;65576;47.714;9.414;2022-12-29T07:54:27;4.15;;;0.57;;
76656;SDS011;65576;47.714;9.414;2022-12-29T07:56:52;4.32;;;0.77;;
76656;SDS011;65576;47.714;9.414;2022-12-29T07:59:18;0.98;;;0.77;;
76656;SDS011;65576;47.714;9.414;2022-12-29T08:01:44;3.83;;;0.90;;
76656;SDS011;65576;47.714;9.414;2022-12-29T08:04:09;1.02;;;0.70;;
76656;SDS011;65576;47.714;9.414;2022-12-29T08:06:35;0.32;;;0.32;;
76656;SDS011;65576;47.714;9.414;2022-12-29T08:09:00;0.85;;;0.50;;
76656;SDS011;65576;47.714;9.414;2022-12-29T08:11:26;0.93;;;0.85;;
76656;SDS011;65576;47.714;9.414;2022-12-29T08:13:51;0.85;;;0.70;;
76656;SDS011;65576;47.714;9.414;2022-12-29T08:16:17;1.08;;;1.00;;
76656;SDS011;65576;47.714;9.414;2022-12-29T08:18:43;0.93;;;0.93;;
76656;SDS011;65576;47.714;9.414;2022-12-29T08:21:08;0.57;;;0.57;;
76656;SDS011;65576;47.714;9.414;2022-12-29T08:23:33;0.73;;;0.70;;
76656;SDS011;65576;47.714;9.414;2022-12-29T08:25:59;2.25;;;1.23;;
76656;SDS011;65576;47.714;9.414;2022-12-29T08:28:26;1.13;;;0.77;;
76656;SDS011;65576;47.714;9.414;2022-12-29T08:30:51;1.00;;;0.88;;
76656;SDS011;65576;47.714;9.414;2022-12-29T08:33:17;0.80;;;0.80;;
76656;SDS011;65576;47.714;9.414;2022-12-29T08:35:42;1.05;;;0.95;;
76656;SDS011;65576;47.714;9.414;2022-12-29T08:38:08;2.63;;;1.30;;
76656;SDS011;65576;47.714;9.414;2022-12-29T08:40:33;1.58;;;0.88;;
76656;SDS011;65576;47.714;9.414;2022-12-29T08:42:58;1.40;;;0.93;;
76656;SDS011;65576;47.714;9.414;2022-12-29T08:45:23;1.10;;;0.98;;
76656;SDS011;65576;47.714;9.414;2022-12-29T08:47:49;2.47;;;1.25;;
76656;SDS011;65576;47.714;9.414;2022-12-29T08:50:14;0.77;;;0.77;;
76656;SDS011;65576;47.714;9.414;2022-12-29T08:52:39;4.28;;;0.70;;
76656;SDS011;65576;47.714;9.414;2022-12-29T08:55:05;1.40;;;1.30;;
76656;SDS011;65576;47.714;9.414;2022-12-29T08:57:30;20.80;;;9.43;;
76656;SDS011;65576;47.714;9.414;2022-12-29T08:59:56;17.55;;;7.60;;
76656;SDS011;65576;47.714;9.414;2022-12-29T09:02:21;13.55;;;6.43;;
76656;SDS011;65576;47.714;9.414;2022-12-29T09:04:46;8.40;;;3.28;;
76656;SDS011;65576;47.714;9.414;2022-12-29T09:07:12;5.50;;;2.75;;
76656;SDS011;65576;47.714;9.414;2022-12-29T09:09:37;8.73;;;4.43;;
76656;SDS011;65576;47.714;9.414;2022-12-29T09:12:02;14.70;;;7.00;;
76656;SDS011;65576;47.714;9.414;2022-12-29T09:14:28;8.07;;;3.83;;
76656;SDS011;65576;47.714;9.414;2022-12-29T09:16:54;3.83;;;1.70;;
76656;SDS011;65576;47.714;9.414;2022-12-29T09:19:38;2.33;;;0.82;;
76656;SDS011;65576;47.714;9.414;2022-12-29T09:22:03;1.75;;;1.20;;
76656;SDS011;65576;47.714;9.414;2022-12-29T09:24:29;1.25;;;0.90;;
76656;SDS011;65576;47.714;9.414;2022-12-29T09:26:54;0.82;;;0.82;;
76656;SDS011;65576;47.714;9.414;2022-12-29T09:29:19;6.05;;;2.58;;
76656;SDS011;65576;47.714;9.414;2022-12-29T09:31:45;4.82;;;2.38;;
76656;SDS011;65576;47.714;9.414;2022-12-29T09:34:10;6.63;;;2.42;;
76656;SDS011;65576;47.714;9.414;2022-12-29T09:36:35;7.57;;;2.20;;
76656;SDS011;65576;47.714;9.414;2022-12-29T09:39:01;4.78;;;2.50;;
76656;SDS011;65576;47.714;9.414;2022-12-29T09:41:28;2.65;;;1.77;;
76656;SDS011;65576;47.714;9.414;2022-12-29T09:44:13;3.53;;;1.88;;
76656;SDS011;65576;47.714;9.414;2022-12-29T09:46:46;1.83;;;0.88;;
76656;SDS011;65576;47.714;9.414;2022-12-29T09:52:05;2.10;;;1.55;;
76656;SDS011;65576;47.714;9.414;2022-12-29T10:00:22;1.23;;;1.10;;
76656;SDS011;65576;47.714;9.414;2022-12-29T10:03:03;2.75;;;1.48;;
76656;SDS011;65576;47.714;9.414;2022-12-29T10:08:36;1.05;;;0.90;;
76656;SDS011;65576;47.714;9.414;2022-12-29T10:16:26;1.65;;;1.02;;
76656;SDS011;65576;47.714;9.414;2022-12-29T10:19:07;1.75;;;1.30;;
76656;SDS011;65576;47.714;9.414;2022-12-29T10:24:31;2.47;;;1.75;;
76656;SDS011;65576;47.714;9.414;2022-12-29T10:26:57;0.80;;;0.70;;
76656;SDS011;65576;47.714;9.414;2022-12-29T10:29:28;1.35;;;1.00;;
76656;SDS011;65576;47.714;9.414;2022-12-29T10:32:02;0.77;;;0.60;;
76656;SDS011;65576;47.714;9.414;2022-12-29T10:34:44;4.97;;;0.90;;
76656;SDS011;65576;47.714;9.414;2022-12-29T10:39:53;0.63;;;0.60;;
76656;SDS011;65576;47.714;9.414;2022-12-29T10:44:44;1.15;;;0.75;;
76656;SDS011;65576;47.714;9.414;2022-12-29T10:47:11;3.35;;;0.82;;
76656;SDS011;65576;47.714;9.414;2022-12-29T10:49:42;0.80;;;0.80;;
76656;SDS011;65576;47.714;9.414;2022-12-29T10:52:08;1.23;;;1.05;;
76656;SDS011;65576;47.714;9.414;2022-12-29T10:57:39;0.60;;;0.60;;
76656;SDS011;65576;47.714;9.414;2022-12-29T11:00:13;1.38;;;1.05;;
76656;SDS011;65576;47.714;9.414;2022-12-29T11:06:09;1.48;;;1.00;;
76656;SDS011;65576;47.714;9.414;2022-12-29T11:08:52;1.05;;;0.90;;
76656;SDS011;65576;47.714;9.414;2022-12-29T11:11:24;1.08;;;0.77;;
76656;SDS011;65576;47.714;9.414;2022-12-29T11:13:56;1.35;;;0.80;;
76656;SDS011;65576;47.714;9.414;2022-12-29T11:16:41;0.47;;;0.43;;
76656;SDS011;65576;47.714;9.414;2022-12-29T11:19:21;1.77;;;0.73;;
76656;SDS011;65576;47.714;9.414;2022-12-29T11:21:48;3.63;;;2.00;;
76656;SDS011;65576;47.714;9.414;2022-12-29T11:24:27;0.80;;;0.80;;
76656;SDS011;65576;47.714;9.414;2022-12-29T11:26:54;1.85;;;1.20;;
76656;SDS011;65576;47.714;9.414;2022-12-29T11:29:38;1.48;;;0.75;;
76656;SDS011;65576;47.714;9.414;2022-12-29T11:32:13;1.02;;;0.95;;
76656;SDS011;65576;47.714;9.414;2022-12-29T11:34:43;0.40;;;0.40;;
76656;SDS011;65576;47.714;9.414;2022-12-29T11:40:03;3.42;;;0.80;;
76656;SDS011;65576;47.714;9.414;2022-12-29T11:42:36;0.80;;;0.70;;
76656;SDS011;65576;47.714;9.414;2022-12-29T11:47:47;3.20;;;0.88;;
76656;SDS011;65576;47.714;9.414;2022-12-29T11:50:24;0.40;;;0.40;;
76656;SDS011;65576;47.714;9.414;2022-12-29T11:52:56;0.70;;;0.70;;
76656;SDS011;65576;47.714;9.414;2022-12-29T11:55:27;0.73;;;0.55;;
76656;SDS011;65576;47.714;9.414;2022-12-29T11:57:53;0.40;;;0.40;;
76656;SDS011;65576;47.714;9.414;2022-12-29T12:00:23;1.55;;;0.70;;
76656;SDS011;65576;47.714;9.414;2022-12-29T12:03:00;0.68;;;0.68;;
76656;SDS011;65576;47.714;9.414;2022-12-29T12:05:32;1.90;;;0.60;;
76656;SDS011;65576;47.714;9.414;2022-12-29T12:08:09;0.73;;;0.55;;
76656;SDS011;65576;47.714;9.414;2022-12-29T12:10:50;0.73;;;0.40;;
76656;SDS011;65576;47.714;9.414;2022-12-29T12:13:20;1.20;;;0.60;;
76656;SDS011;65576;47.714;9.414;2022-12-29T12:16:02;0.52;;;0.52;;
76656;SDS011;65576;47.714;9.414;2022-12-29T12:26:22;1.27;;;0.93;;
76656;SDS011;65576;47.714;9.414;2022-12-29T12:29:12;1.27;;;1.17;;
76656;SDS011;65576;47.714;9.414;2022-12-29T12:31:46;12.02;;;4.88;;
76656;SDS011;65576;47.714;9.414;2022-12-29T12:34:16;3.08;;;1.20;;
76656;SDS011;65576;47.714;9.414;2022-12-29T12:39:26;3.92;;;2.00;;
76656;SDS011;65576;47.714;9.414;2022-12-29T12:50:55;0.65;;;0.63;;
76656;SDS011;65576;47.714;9.414;2022-12-29T12:56:45;2.83;;;1.92;;
76656;SDS011;65576;47.714;9.414;2022-12-29T12:59:45;2.45;;;1.27;;
76656;SDS011;65576;47.714;9.414;2022-12-29T13:10:39;1.20;;;1.10;;
76656;SDS011;65576;47.714;9.414;2022-12-29T13:13:15;1.33;;;1.10;;
76656;SDS011;65576;47.714;9.414;2022-12-29T13:16:28;0.30;;;0.30;;
76656;SDS011;65576;47.714;9.414;2022-12-29T13:26:49;1.73;;;0.95;;
76656;SDS011;65576;47.714;9.414;2022-12-29T13:29:36;1.33;;;0.90;;
76656;SDS011;65576;47.714;9.414;2022-12-29T13:35:11;1.42;;;0.70;;
76656;SDS011;65576;47.714;9.414;2022-12-29T13:37:51;2.25;;;0.88;;
76656;SDS011;65576;47.714;9.414;2022-12-29T13:40:19;0.50;;;0.50;;
76656;SDS011;65576;47.714;9.414;2022-12-29T13:42:48;0.70;;;0.68;;
76656;SDS011;65576;47.714;9.414;2022-12-29T13:45:14;0.80;;;0.40;;
76656;SDS011;65576;47.714;9.414;2022-12-29T13:47:44;1.38;;;0.90;;
76656;SDS011;65576;47.714;9.414;2022-12-29T13:50:21;1.40;;;1.00;;
76656;SDS011;65576;47.714;9.414;2022-12-29T13:53:01;0.60;;;0.60;;
76656;SDS011;65576;47.714;9.414;2022-12-29T13:58:12;1.00;;;0.60;;
76656;SDS011;65576;47.714;9.414;2022-12-29T14:08:55;3.58;;;0.88;;
76656;SDS011;65576;47.714;9.414;2022-12-29T14:11:23;0.43;;;0.43;;
76656;SDS011;65576;47.714;9.414;2022-12-29T14:13:53;2.03;;;0.63;;
76656;SDS011;65576;47.714;9.414;2022-12-29T14:16:37;0.50;;;0.47;;
76656;SDS011;65576;47.714;9.414;2022-12-29T14:19:16;0.90;;;0.68;;
76656;SDS011;65576;47.714;9.414;2022-12-29T14:21:56;3.60;;;0.70;;
76656;SDS011;65576;47.714;9.414;2022-12-29T14:26:57;1.83;;;1.35;;
76656;SDS011;65576;47.714;9.414;2022-12-29T14:31:53;1.95;;;1.30;;
76656;SDS011;65576;47.714;9.414;2022-12-29T14:37:00;2.15;;;1.15;;
76656;SDS011;65576;47.714;9.414;2022-12-29T14:39:34;1.70;;;0.70;;
76656;SDS011;65576;47.714;9.414;2022-12-29T14:45:23;0.52;;;0.50;;
76656;SDS011;65576;47.714;9.414;2022-12-29T14:47:27;0.55;;;0.55;;
76656;SDS011;65576;47.714;9.414;2022-12-29T14:50:04;1.05;;;0.82;;
76656;SDS011;65576;47.714;9.414;2022-12-29T14:52:31;2.08;;;0.95;;
76656;SDS011;65576;47.714;9.414;2022-12-29T14:54:57;1.00;;;0.93;;
76656;SDS011;65576;47.714;9.414;2022-12-29T14:57:29;0.50;;;0.47;;
76656;SDS011;65576;47.714;9.414;2022-12-29T15:00:02;0.65;;;0.45;;
76656;SDS011;65576;47.714;9.414;2022-12-29T15:02:33;2.00;;;0.60;;
76656;SDS011;65576;47.714;9.414;2022-12-29T15:05:00;1.58;;;1.25;;
76656;SDS011;65576;47.714;9.414;2022-12-29T15:07:27;0.47;;;0.47;;
76656;SDS011;65576;47.714;9.414;2022-12-29T15:09:56;1.02;;;0.57;;
76656;SDS011;65576;47.714;9.414;2022-12-29T15:12:38;1.33;;;0.90;;
76656;SDS011;65576;47.714;9.414;2022-12-29T15:15:16;0.93;;;0.85;;
76656;SDS011;65576;47.714;9.414;2022-12-29T15:17:44;0.50;;;0.50;;
76656;SDS011;65576;47.714;9.414;2022-12-29T15:22:51;1.42;;;0.80;;
76656;SDS011;65576;47.714;9.414;2022-12-29T15:25:19;0.38;;;0.38;;
76656;SDS011;65576;47.714;9.414;2022-12-29T15:27:48;1.13;;;0.80;;
76656;SDS011;65576;47.714;9.414;2022-12-29T15:30:15;1.15;;;0.77;;
76656;SDS011;65576;47.714;9.414;2022-12-29T15:32:43;0.63;;;0.57;;
76656;SDS011;65576;47.714;9.414;2022-12-29T15:35:22;2.60;;;0.98;;
76656;SDS011;65576;47.714;9.414;2022-12-29T15:37:49;0.43;;;0.43;;
76656;SDS011;65576;47.714;9.414;2022-12-29T15:40:28;4.50;;;1.08;;
76656;SDS011;65576;47.714;9.414;2022-12-29T15:42:58;0.90;;;0.63;;
76656;SDS011;65576;47.714;9.414;2022-12-29T15:45:34;2.78;;;0.70;;
76656;SDS011;65576;47.714;9.414;2022-12-29T15:48:00;0.75;;;0.75;;
76656;SDS011;65576;47.714;9.414;2022-12-29T15:50:30;4.43;;;0.80;;
76656;SDS011;65576;47.714;9.414;2022-12-29T15:52:57;2.40;;;0.98;;
76656;SDS011;65576;47.714;9.414;2022-12-29T15:55:32;4.90;;;1.20;;
76656;SDS011;65576;47.714;9.414;2022-12-29T15:58:00;3.58;;;0.80;;
76656;SDS011;65576;47.714;9.414;2022-12-29T16:00:27;3.70;;;0.55;;
76656;SDS011;65576;47.714;9.414;2022-12-29T16:02:58;0.55;;;0.43;;
76656;SDS011;65576;47.714;9.414;2022-12-29T16:05:31;0.93;;;0.82;;
76656;SDS011;65576;47.714;9.414;2022-12-29T16:07:58;0.95;;;0.65;;
76656;SDS011;65576;47.714;9.414;2022-12-29T16:10:30;0.70;;;0.70;;
76656;SDS011;65576;47.714;9.414;2022-12-29T16:13:05;1.00;;;0.60;;
76656;SDS011;65576;47.714;9.414;2022-12-29T16:15:37;0.68;;;0.68;;
76656;SDS011;65576;47.714;9.414;2022-12-29T16:18:02;0.63;;;0.52;;
76656;SDS011;65576;47.714;9.414;2022-12-29T16:20:37;1.02;;;0.80;;
76656;SDS011;65576;47.714;9.414;2022-12-29T16:23:04;0.50;;;0.50;;
76656;SDS011;65576;47.714;9.414;2022-12-29T16:25:31;0.40;;;0.40;;
76656;SDS011;65576;47.714;9.414;2022-12-29T16:27:59;1.65;;;0.80;;
76656;SDS011;65576;47.714;9.414;2022-12-29T16:30:29;1.80;;;0.60;;
76656;SDS011;65576;47.714;9.414;2022-12-29T16:32:56;0.98;;;0.90;;
76656;SDS011;65576;47.714;9.414;2022-12-29T16:35:34;0.40;;;0.40;;
76656;SDS011;65576;47.714;9.414;2022-12-29T16:41:02;1.38;;;0.50;;
76656;SDS011;65576;47.714;9.414;2022-12-29T16:43:31;0.60;;;0.60;;
76656;SDS011;65576;47.714;9.414;2022-12-29T16:48:28;1.58;;;0.98;;
76656;SDS011;65576;47.714;9.414;2022-12-29T16:53:52;0.50;;;0.50;;
76656;SDS011;65576;47.714;9.414;2022-12-29T16:56:23;0.30;;;0.30;;
76656;SDS011;65576;47.714;9.414;2022-12-29T16:58:51;0.30;;;0.30;;
76656;SDS011;65576;47.714;9.414;2022-12-29T17:01:23;0.45;;;0.32;;
76656;SDS011;65576;47.714;9.414;2022-12-29T17:03:59;1.98;;;0.57;;
76656;SDS011;65576;47.714;9.414;2022-12-29T17:06:26;0.98;;;0.80;;
76656;SDS011;65576;47.714;9.414;2022-12-29T17:08:51;0.52;;;0.40;;
76656;SDS011;65576;47.714;9.414;2022-12-29T17:11:21;1.90;;;1.02;;
76656;SDS011;65576;47.714;9.414;2022-12-29T17:14:17;4.30;;;1.05;;
76656;SDS011;65576;47.714;9.414;2022-12-29T17:16:44;0.70;;;0.60;;
76656;SDS011;65576;47.714;9.414;2022-12-29T17:19:17;0.63;;;0.43;;
76656;SDS011;65576;47.714;9.414;2022-12-29T17:21:43;1.67;;;1.58;;